sensor_id;sensor_type;location;lat;lon;timestamp;pressure;altitude;pressure_sealevel;temperature
65569;BMP180;52211;50.154;8.682;2023-02-10T00:02:07;101934.00;;;4.80
65569;BMP180;52211;50.154;8.682;2023-02-10T00:04:37;101937.00;;;4.70
65569;BMP180;52211;50.154;8.682;2023-02-10T00:07:08;101938.00;;;4.70
65569;BMP180;52211;50.154;8.682;2023-02-10T00:09:35;101935.00;;;4.70
65569;BMP180;52211;50.154;8.682;2023-02-10T00:12:02;101934.00;;;4.70
65569;BMP180;52211;50.154;8.682;2023-02-10T00:14:32;101931.00;;;4.70
65569;BMP180;52211;50.154;8.682;2023-02-10T00:17:02;101931.00;;;4.60
65569;BMP180;52211;50.154;8.682;2023-02-10T00:19:34;101930.00;;;4.60
65569;BMP180;52211;50.154;8.682;2023-02-10T00:22:02;101938.00;;;4.60
65569;BMP180;52211;50.154;8.682;2023-02-10T00:24:29;101943.00;;;4.60
65569;BMP180;52211;50.154;8.682;2023-02-10T00:26:58;101944.00;;;4.60
65569;BMP180;52211;50.154;8.682;2023-02-10T00:29:27;101956.00;;;4.60
65569;BMP180;52211;50.154;8.682;2023-02-10T00:31:57;101949.00;;;4.60
65569;BMP180;52211;50.154;8.682;2023-02-10T00:34:24;101954.00;;;4.60
65569;BMP180;52211;50.154;8.682;2023-02-10T00:36:52;101955.00;;;4.60
65569;BMP180;52211;50.154;8.682;2023-02-10T00:39:21;101955.00;;;4.60
65569;BMP180;52211;50.154;8.682;2023-02-10T00:41:51;101955.00;;;4.60
65569;BMP180;52211;50.154;8.682;2023-02-10T00:44:20;101954.00;;;4.60
65569;BMP180;52211;50.154;8.682;2023-02-10T00:46:57;101974.00;;;4.60
65569;BMP180;52211;50.154;8.682;2023-02-10T00:49:25;101978.00;;;4.60
65569;BMP180;52211;50.154;8.682;2023-02-10T00:51:55;101969.00;;;4.60
65569;BMP180;52211;50.154;8.682;2023-02-10T00:54:24;101981.00;;;4.50
65569;BMP180;52211;50.154;8.682;2023-02-10T00:56:53;101982.00;;;4.50
65569;BMP180;52211;50.154;8.682;2023-02-10T00:59:20;101983.00;;;4.60
65569;BMP180;52211;50.154;8.682;2023-02-10T01:01:47;101982.00;;;4.50
65569;BMP180;52211;50.154;8.682;2023-02-10T01:04:14;101979.00;;;4.50
65569;BMP180;52211;50.154;8.682;2023-02-10T01:06:41;101977.00;;;4.50
65569;BMP180;52211;50.154;8.682;2023-02-10T01:09:09;101977.00;;;4.50
65569;BMP180;52211;50.154;8.682;2023-02-10T01:11:41;101985.00;;;4.50
65569;BMP180;52211;50.154;8.682;2023-02-10T01:14:10;101990.00;;;4.50
65569;BMP180;52211;50.154;8.682;2023-02-10T01:16:39;101990.00;;;4.50
65569;BMP180;52211;50.154;8.682;2023-02-10T01:19:13;101987.00;;;4.50
65569;BMP180;52211;50.154;8.682;2023-02-10T01:21:44;101985.00;;;4.50
65569;BMP180;52211;50.154;8.682;2023-02-10T01:24:11;101987.00;;;4.40
65569;BMP180;52211;50.154;8.682;2023-02-10T01:26:42;101989.00;;;4.40
65569;BMP180;52211;50.154;8.682;2023-02-10T01:29:11;101994.00;;;4.40
65569;BMP180;52211;50.154;8.682;2023-02-10T01:31:40;101992.00;;;4.40
65569;BMP180;52211;50.154;8.682;2023-02-10T01:34:07;102002.00;;;4.40
65569;BMP180;52211;50.154;8.682;2023-02-10T01:36:38;101999.00;;;4.40
65569;BMP180;52211;50.154;8.682;2023-02-10T01:39:07;101995.00;;;4.30
65569;BMP180;52211;50.154;8.682;2023-02-10T01:41:37;102004.00;;;4.30
65569;BMP180;52211;50.154;8.682;2023-02-10T01:46:51;102010.00;;;4.20
65569;BMP180;52211;50.154;8.682;2023-02-10T01:49:22;102014.00;;;4.20
65569;BMP180;52211;50.154;8.682;2023-02-10T01:54:47;102016.00;;;4.20
65569;BMP180;52211;50.154;8.682;2023-02-10T01:57:21;102013.00;;;4.20
65569;BMP180;52211;50.154;8.682;2023-02-10T01:59:49;102018.00;;;4.20
65569;BMP180;52211;50.154;8.682;2023-02-10T02:02:18;102018.00;;;4.20
65569;BMP180;52211;50.154;8.682;2023-02-10T02:04:51;102018.00;;;4.20
65569;BMP180;52211;50.154;8.682;2023-02-10T02:07:26;102015.00;;;4.20
65569;BMP180;52211;50.154;8.682;2023-02-10T02:10:04;102022.00;;;4.20
65569;BMP180;52211;50.154;8.682;2023-02-10T02:13:08;102018.00;;;4.20
65569;BMP180;52211;50.154;8.682;2023-02-10T02:15:59;102018.00;;;4.20
65569;BMP180;52211;50.154;8.682;2023-02-10T02:19:06;102019.00;;;4.20
65569;BMP180;52211;50.154;8.682;2023-02-10T02:24:57;102018.00;;;4.20
65569;BMP180;52211;50.154;8.682;2023-02-10T02:34:37;102028.00;;;4.30
65569;BMP180;52211;50.154;8.682;2023-02-10T02:37:22;102026.00;;;4.30
65569;BMP180;52211;50.154;8.682;2023-02-10T02:39:53;102033.00;;;4.40
65569;BMP180;52211;50.154;8.682;2023-02-10T02:42:30;102030.00;;;4.40
65569;BMP180;52211;50.154;8.682;2023-02-10T02:48:04;102037.00;;;4.50
65569;BMP180;52211;50.154;8.682;2023-02-10T02:50:59;102037.00;;;4.50
65569;BMP180;52211;50.154;8.682;2023-02-10T02:53:46;102031.00;;;4.60
65569;BMP180;52211;50.154;8.682;2023-02-10T02:59:09;102034.00;;;4.70
65569;BMP180;52211;50.154;8.682;2023-02-10T03:01:53;102035.00;;;4.80
65569;BMP180;52211;50.154;8.682;2023-02-10T03:04:23;102035.00;;;4.80
65569;BMP180;52211;50.154;8.682;2023-02-10T03:06:55;102033.00;;;4.90
65569;BMP180;52211;50.154;8.682;2023-02-10T03:09:28;102022.00;;;4.90
65569;BMP180;52211;50.154;8.682;2023-02-10T03:11:57;102026.00;;;5.00
65569;BMP180;52211;50.154;8.682;2023-02-10T03:14:27;102021.00;;;5.00
65569;BMP180;52211;50.154;8.682;2023-02-10T03:16:59;102028.00;;;5.10
65569;BMP180;52211;50.154;8.682;2023-02-10T03:19:30;102027.00;;;5.10
65569;BMP180;52211;50.154;8.682;2023-02-10T03:22:03;102021.00;;;5.20
65569;BMP180;52211;50.154;8.682;2023-02-10T03:24:30;102027.00;;;5.20
65569;BMP180;52211;50.154;8.682;2023-02-10T03:26:57;102029.00;;;5.30
65569;BMP180;52211;50.154;8.682;2023-02-10T03:29:36;102021.00;;;5.30
65569;BMP180;52211;50.154;8.682;2023-02-10T03:32:05;102036.00;;;5.40
65569;BMP180;52211;50.154;8.682;2023-02-10T03:34:35;102029.00;;;5.40
65569;BMP180;52211;50.154;8.682;2023-02-10T03:37:01;102029.00;;;5.40
65569;BMP180;52211;50.154;8.682;2023-02-10T03:39:30;102029.00;;;5.50
65569;BMP180;52211;50.154;8.682;2023-02-10T03:41:57;102030.00;;;5.50
65569;BMP180;52211;50.154;8.682;2023-02-10T03:44:25;102034.00;;;5.50
65569;BMP180;52211;50.154;8.682;2023-02-10T03:46:54;102030.00;;;5.50
65569;BMP180;52211;50.154;8.682;2023-02-10T03:49:23;102036.00;;;5.60
65569;BMP180;52211;50.154;8.682;2023-02-10T03:51:50;102033.00;;;5.60
65569;BMP180;52211;50.154;8.682;2023-02-10T03:54:22;102040.00;;;5.70
65569;BMP180;52211;50.154;8.682;2023-02-10T03:56:54;102040.00;;;5.70
65569;BMP180;52211;50.154;8.682;2023-02-10T03:59:21;102047.00;;;5.70
65569;BMP180;52211;50.154;8.682;2023-02-10T04:01:53;102049.00;;;5.70
65569;BMP180;52211;50.154;8.682;2023-02-10T04:04:25;102058.00;;;5.70
65569;BMP180;52211;50.154;8.682;2023-02-10T04:06:56;102058.00;;;5.70
65569;BMP180;52211;50.154;8.682;2023-02-10T04:09:23;102049.00;;;5.80
65569;BMP180;52211;50.154;8.682;2023-02-10T04:11:53;102048.00;;;5.80
65569;BMP180;52211;50.154;8.682;2023-02-10T04:14:19;102052.00;;;5.80
65569;BMP180;52211;50.154;8.682;2023-02-10T04:16:52;102058.00;;;5.90
65569;BMP180;52211;50.154;8.682;2023-02-10T04:19:26;102063.00;;;5.90
65569;BMP180;52211;50.154;8.682;2023-02-10T04:21:55;102060.00;;;5.90
65569;BMP180;52211;50.154;8.682;2023-02-10T04:24:24;102069.00;;;5.90
65569;BMP180;52211;50.154;8.682;2023-02-10T04:26:51;102075.00;;;5.90
65569;BMP180;52211;50.154;8.682;2023-02-10T04:29:18;102086.00;;;5.90
65569;BMP180;52211;50.154;8.682;2023-02-10T04:31:52;102078.00;;;5.90
65569;BMP180;52211;50.154;8.682;2023-02-10T04:34:19;102081.00;;;5.90
65569;BMP180;52211;50.154;8.682;2023-02-10T04:36:51;102081.00;;;5.90
65569;BMP180;52211;50.154;8.682;2023-02-10T04:39:17;102081.00;;;5.90
65569;BMP180;52211;50.154;8.682;2023-02-10T04:41:46;102089.00;;;5.90
65569;BMP180;52211;50.154;8.682;2023-02-10T04:44:16;102084.00;;;5.90
65569;BMP180;52211;50.154;8.682;2023-02-10T04:46:48;102085.00;;;5.90
65569;BMP180;52211;50.154;8.682;2023-02-10T04:49:20;102088.00;;;5.90
65569;BMP180;52211;50.154;8.682;2023-02-10T04:51:47;102085.00;;;5.90
65569;BMP180;52211;50.154;8.682;2023-02-10T04:54:19;102090.00;;;5.90
65569;BMP180;52211;50.154;8.682;2023-02-10T04:56:47;102096.00;;;5.90
65569;BMP180;52211;50.154;8.682;2023-02-10T04:59:18;102087.00;;;5.90
65569;BMP180;52211;50.154;8.682;2023-02-10T05:01:48;102091.00;;;5.90
65569;BMP180;52211;50.154;8.682;2023-02-10T05:04:15;102093.00;;;6.00
65569;BMP180;52211;50.154;8.682;2023-02-10T05:06:48;102096.00;;;6.00
65569;BMP180;52211;50.154;8.682;2023-02-10T05:09:18;102089.00;;;6.00
65569;BMP180;52211;50.154;8.682;2023-02-10T05:11:47;102094.00;;;6.00
65569;BMP180;52211;50.154;8.682;2023-02-10T05:14:16;102096.00;;;6.00
65569;BMP180;52211;50.154;8.682;2023-02-10T05:16:43;102091.00;;;6.00
65569;BMP180;52211;50.154;8.682;2023-02-10T05:19:10;102090.00;;;6.00
65569;BMP180;52211;50.154;8.682;2023-02-10T05:21:37;102099.00;;;6.00
65569;BMP180;52211;50.154;8.682;2023-02-10T05:24:04;102091.00;;;6.00
65569;BMP180;52211;50.154;8.682;2023-02-10T05:26:36;102100.00;;;6.00
65569;BMP180;52211;50.154;8.682;2023-02-10T05:29:05;102106.00;;;6.10
65569;BMP180;52211;50.154;8.682;2023-02-10T05:31:32;102104.00;;;6.10
65569;BMP180;52211;50.154;8.682;2023-02-10T05:34:02;102112.00;;;6.10
65569;BMP180;52211;50.154;8.682;2023-02-10T05:36:31;102111.00;;;6.10
65569;BMP180;52211;50.154;8.682;2023-02-10T05:39:01;102113.00;;;6.10
65569;BMP180;52211;50.154;8.682;2023-02-10T05:41:46;102103.00;;;6.10
65569;BMP180;52211;50.154;8.682;2023-02-10T05:44:15;102112.00;;;6.10
65569;BMP180;52211;50.154;8.682;2023-02-10T05:46:45;102116.00;;;6.10
65569;BMP180;52211;50.154;8.682;2023-02-10T05:49:16;102111.00;;;6.20
65569;BMP180;52211;50.154;8.682;2023-02-10T05:51:44;102113.00;;;6.20
65569;BMP180;52211;50.154;8.682;2023-02-10T05:54:14;102116.00;;;6.20
65569;BMP180;52211;50.154;8.682;2023-02-10T05:56:41;102109.00;;;6.20
65569;BMP180;52211;50.154;8.682;2023-02-10T05:59:13;102108.00;;;6.20
65569;BMP180;52211;50.154;8.682;2023-02-10T06:01:43;102112.00;;;6.20
65569;BMP180;52211;50.154;8.682;2023-02-10T06:04:21;102106.00;;;6.20
65569;BMP180;52211;50.154;8.682;2023-02-10T06:06:50;102102.00;;;6.20
65569;BMP180;52211;50.154;8.682;2023-02-10T06:09:20;102101.00;;;6.20
65569;BMP180;52211;50.154;8.682;2023-02-10T06:11:50;102099.00;;;6.20
65569;BMP180;52211;50.154;8.682;2023-02-10T06:14:20;102114.00;;;6.30
65569;BMP180;52211;50.154;8.682;2023-02-10T06:16:51;102105.00;;;6.30
65569;BMP180;52211;50.154;8.682;2023-02-10T06:19:21;102111.00;;;6.30
65569;BMP180;52211;50.154;8.682;2023-02-10T06:21:50;102119.00;;;6.30
65569;BMP180;52211;50.154;8.682;2023-02-10T06:24:17;102119.00;;;6.30
65569;BMP180;52211;50.154;8.682;2023-02-10T06:26:43;102120.00;;;6.30
65569;BMP180;52211;50.154;8.682;2023-02-10T06:29:10;102122.00;;;6.30
65569;BMP180;52211;50.154;8.682;2023-02-10T06:31:42;102116.00;;;6.30
65569;BMP180;52211;50.154;8.682;2023-02-10T06:34:09;102116.00;;;6.30
65569;BMP180;52211;50.154;8.682;2023-02-10T06:36:36;102127.00;;;6.20
65569;BMP180;52211;50.154;8.682;2023-02-10T06:39:06;102131.00;;;6.20
65569;BMP180;52211;50.154;8.682;2023-02-10T06:41:37;102121.00;;;6.20
65569;BMP180;52211;50.154;8.682;2023-02-10T06:44:04;102128.00;;;6.20
65569;BMP180;52211;50.154;8.682;2023-02-10T06:46:31;102130.00;;;6.20
65569;BMP180;52211;50.154;8.682;2023-02-10T06:49:00;102129.00;;;6.20
65569;BMP180;52211;50.154;8.682;2023-02-10T06:51:30;102136.00;;;6.10
65569;BMP180;52211;50.154;8.682;2023-02-10T06:54:07;102143.00;;;6.10
65569;BMP180;52211;50.154;8.682;2023-02-10T06:56:38;102147.00;;;6.10
65569;BMP180;52211;50.154;8.682;2023-02-10T06:59:10;102160.00;;;6.10
65569;BMP180;52211;50.154;8.682;2023-02-10T07:01:42;102161.00;;;6.10
65569;BMP180;52211;50.154;8.682;2023-02-10T07:04:11;102152.00;;;6.10
65569;BMP180;52211;50.154;8.682;2023-02-10T07:06:42;102159.00;;;6.10
65569;BMP180;52211;50.154;8.682;2023-02-10T07:09:09;102149.00;;;6.00
65569;BMP180;52211;50.154;8.682;2023-02-10T07:11:39;102157.00;;;6.00
65569;BMP180;52211;50.154;8.682;2023-02-10T07:14:10;102158.00;;;6.00
65569;BMP180;52211;50.154;8.682;2023-02-10T07:16:37;102159.00;;;6.00
65569;BMP180;52211;50.154;8.682;2023-02-10T07:19:08;102163.00;;;6.00
65569;BMP180;52211;50.154;8.682;2023-02-10T07:21:35;102170.00;;;5.90
65569;BMP180;52211;50.154;8.682;2023-02-10T07:24:05;102168.00;;;5.90
65569;BMP180;52211;50.154;8.682;2023-02-10T07:26:32;102172.00;;;5.90
65569;BMP180;52211;50.154;8.682;2023-02-10T07:28:59;102180.00;;;5.90
65569;BMP180;52211;50.154;8.682;2023-02-10T07:31:29;102181.00;;;5.80
65569;BMP180;52211;50.154;8.682;2023-02-10T07:33:56;102172.00;;;5.80
65569;BMP180;52211;50.154;8.682;2023-02-10T07:36:24;102185.00;;;5.80
65569;BMP180;52211;50.154;8.682;2023-02-10T07:38:51;102178.00;;;5.80
65569;BMP180;52211;50.154;8.682;2023-02-10T07:41:18;102177.00;;;5.80
65569;BMP180;52211;50.154;8.682;2023-02-10T07:43:49;102180.00;;;5.70
65569;BMP180;52211;50.154;8.682;2023-02-10T07:46:24;102188.00;;;5.70
65569;BMP180;52211;50.154;8.682;2023-02-10T07:48:58;102194.00;;;5.70
65569;BMP180;52211;50.154;8.682;2023-02-10T07:51:25;102199.00;;;5.70
65569;BMP180;52211;50.154;8.682;2023-02-10T07:53:57;102203.00;;;5.70
65569;BMP180;52211;50.154;8.682;2023-02-10T07:56:24;102202.00;;;5.70
65569;BMP180;52211;50.154;8.682;2023-02-10T07:58:53;102199.00;;;5.70
65569;BMP180;52211;50.154;8.682;2023-02-10T08:01:21;102203.00;;;5.80
65569;BMP180;52211;50.154;8.682;2023-02-10T08:03:48;102205.00;;;5.80
65569;BMP180;52211;50.154;8.682;2023-02-10T08:06:24;102206.00;;;5.80
65569;BMP180;52211;50.154;8.682;2023-02-10T08:08:53;102207.00;;;5.80
65569;BMP180;52211;50.154;8.682;2023-02-10T08:11:22;102212.00;;;5.80
65569;BMP180;52211;50.154;8.682;2023-02-10T08:13:52;102203.00;;;5.80
65569;BMP180;52211;50.154;8.682;2023-02-10T08:16:21;102205.00;;;5.80
65569;BMP180;52211;50.154;8.682;2023-02-10T08:18:51;102197.00;;;5.90
65569;BMP180;52211;50.154;8.682;2023-02-10T08:21:18;102192.00;;;5.90
65569;BMP180;52211;50.154;8.682;2023-02-10T08:23:45;102201.00;;;5.90
65569;BMP180;52211;50.154;8.682;2023-02-10T08:26:13;102212.00;;;5.90
65569;BMP180;52211;50.154;8.682;2023-02-10T08:28:42;102206.00;;;6.00
65569;BMP180;52211;50.154;8.682;2023-02-10T08:31:12;102202.00;;;6.00
65569;BMP180;52211;50.154;8.682;2023-02-10T08:33:42;102204.00;;;6.00
65569;BMP180;52211;50.154;8.682;2023-02-10T08:36:16;102203.00;;;6.00
65569;BMP180;52211;50.154;8.682;2023-02-10T08:38:44;102218.00;;;6.00
65569;BMP180;52211;50.154;8.682;2023-02-10T08:41:15;102227.00;;;6.00
65569;BMP180;52211;50.154;8.682;2023-02-10T08:43:43;102225.00;;;6.10
65569;BMP180;52211;50.154;8.682;2023-02-10T08:46:13;102227.00;;;6.10
65569;BMP180;52211;50.154;8.682;2023-02-10T08:48:42;102233.00;;;6.20
65569;BMP180;52211;50.154;8.682;2023-02-10T08:51:13;102223.00;;;6.20
65569;BMP180;52211;50.154;8.682;2023-02-10T08:53:44;102219.00;;;6.30
65569;BMP180;52211;50.154;8.682;2023-02-10T08:56:16;102220.00;;;6.30
65569;BMP180;52211;50.154;8.682;2023-02-10T08:58:49;102225.00;;;6.40
65569;BMP180;52211;50.154;8.682;2023-02-10T09:01:24;102224.00;;;6.40
65569;BMP180;52211;50.154;8.682;2023-02-10T09:03:56;102232.00;;;6.50
65569;BMP180;52211;50.154;8.682;2023-02-10T09:06:34;102239.00;;;6.60
65569;BMP180;52211;50.154;8.682;2023-02-10T09:09:17;102246.00;;;6.70
65569;BMP180;52211;50.154;8.682;2023-02-10T09:11:46;102232.00;;;6.80
65569;BMP180;52211;50.154;8.682;2023-02-10T09:14:17;102235.00;;;6.90
65569;BMP180;52211;50.154;8.682;2023-02-10T09:16:55;102238.00;;;6.90
65569;BMP180;52211;50.154;8.682;2023-02-10T09:19:22;102235.00;;;7.00
65569;BMP180;52211;50.154;8.682;2023-02-10T09:21:50;102239.00;;;7.10
65569;BMP180;52211;50.154;8.682;2023-02-10T09:24:24;102225.00;;;7.10
65569;BMP180;52211;50.154;8.682;2023-02-10T09:26:51;102219.00;;;7.20
65569;BMP180;52211;50.154;8.682;2023-02-10T09:29:21;102225.00;;;7.20
65569;BMP180;52211;50.154;8.682;2023-02-10T09:31:54;102228.00;;;7.30
65569;BMP180;52211;50.154;8.682;2023-02-10T09:34:21;102228.00;;;7.40
65569;BMP180;52211;50.154;8.682;2023-02-10T09:36:48;102231.00;;;7.50
65569;BMP180;52211;50.154;8.682;2023-02-10T09:39:15;102236.00;;;7.50
65569;BMP180;52211;50.154;8.682;2023-02-10T09:41:57;102242.00;;;7.60
65569;BMP180;52211;50.154;8.682;2023-02-10T09:44:34;102249.00;;;7.60
65569;BMP180;52211;50.154;8.682;2023-02-10T09:55:45;102246.00;;;7.80
65569;BMP180;52211;50.154;8.682;2023-02-10T09:58:26;102251.00;;;7.90
65569;BMP180;52211;50.154;8.682;2023-02-10T10:01:10;102247.00;;;7.90
65569;BMP180;52211;50.154;8.682;2023-02-10T10:04:10;102237.00;;;7.90
65569;BMP180;52211;50.154;8.682;2023-02-10T10:06:43;102239.00;;;8.00
65569;BMP180;52211;50.154;8.682;2023-02-10T10:11:52;102241.00;;;8.10
65569;BMP180;52211;50.154;8.682;2023-02-10T10:14:27;102244.00;;;8.20
65569;BMP180;52211;50.154;8.682;2023-02-10T10:25:57;102251.00;;;8.40
65569;BMP180;52211;50.154;8.682;2023-02-10T10:31:19;102257.00;;;8.40
65569;BMP180;52211;50.154;8.682;2023-02-10T10:34:10;102260.00;;;8.40
65569;BMP180;52211;50.154;8.682;2023-02-10T10:36:54;102257.00;;;8.40
65569;BMP180;52211;50.154;8.682;2023-02-10T10:39:45;102263.00;;;8.50
65569;BMP180;52211;50.154;8.682;2023-02-10T10:45:17;102258.00;;;8.60
65569;BMP180;52211;50.154;8.682;2023-02-10T10:47:58;102260.00;;;8.60
65569;BMP180;52211;50.154;8.682;2023-02-10T10:50:28;102258.00;;;8.70
65569;BMP180;52211;50.154;8.682;2023-02-10T10:52:59;102253.00;;;8.70
65569;BMP180;52211;50.154;8.682;2023-02-10T10:55:40;102265.00;;;8.70
65569;BMP180;52211;50.154;8.682;2023-02-10T10:58:28;102255.00;;;8.70
65569;BMP180;52211;50.154;8.682;2023-02-10T11:01:02;102249.00;;;8.70
65569;BMP180;52211;50.154;8.682;2023-02-10T11:03:33;102234.00;;;8.80
65569;BMP180;52211;50.154;8.682;2023-02-10T11:08:54;102221.00;;;8.90
65569;BMP180;52211;50.154;8.682;2023-02-10T11:11:35;102230.00;;;8.90
65569;BMP180;52211;50.154;8.682;2023-02-10T11:14:23;102231.00;;;9.00
65569;BMP180;52211;50.154;8.682;2023-02-10T11:16:58;102231.00;;;9.10
65569;BMP180;52211;50.154;8.682;2023-02-10T11:19:32;102227.00;;;9.10
65569;BMP180;52211;50.154;8.682;2023-02-10T11:22:16;102219.00;;;9.20
65569;BMP180;52211;50.154;8.682;2023-02-10T11:24:59;102223.00;;;9.20
65569;BMP180;52211;50.154;8.682;2023-02-10T11:27:35;102228.00;;;9.30
65569;BMP180;52211;50.154;8.682;2023-02-10T11:30:04;102219.00;;;9.30
65569;BMP180;52211;50.154;8.682;2023-02-10T11:32:34;102217.00;;;9.40
65569;BMP180;52211;50.154;8.682;2023-02-10T11:35:16;102200.00;;;9.40
65569;BMP180;52211;50.154;8.682;2023-02-10T11:37:56;102206.00;;;9.40
65569;BMP180;52211;50.154;8.682;2023-02-10T11:40:30;102217.00;;;9.50
65569;BMP180;52211;50.154;8.682;2023-02-10T11:43:00;102210.00;;;9.40
65569;BMP180;52211;50.154;8.682;2023-02-10T11:45:33;102209.00;;;9.40
65569;BMP180;52211;50.154;8.682;2023-02-10T11:50:44;102210.00;;;9.50
65569;BMP180;52211;50.154;8.682;2023-02-10T11:53:26;102199.00;;;9.50
65569;BMP180;52211;50.154;8.682;2023-02-10T11:56:07;102201.00;;;9.50
65569;BMP180;52211;50.154;8.682;2023-02-10T12:14:49;102192.00;;;9.70
65569;BMP180;52211;50.154;8.682;2023-02-10T12:17:35;102192.00;;;9.70
65569;BMP180;52211;50.154;8.682;2023-02-10T12:20:38;102191.00;;;9.80
65569;BMP180;52211;50.154;8.682;2023-02-10T12:31:48;102188.00;;;10.00
65569;BMP180;52211;50.154;8.682;2023-02-10T12:37:19;102181.00;;;10.10
65569;BMP180;52211;50.154;8.682;2023-02-10T12:40:51;102174.00;;;10.10
65569;BMP180;52211;50.154;8.682;2023-02-10T12:43:46;102174.00;;;10.10
65569;BMP180;52211;50.154;8.682;2023-02-10T12:50:07;102170.00;;;10.20
65569;BMP180;52211;50.154;8.682;2023-02-10T12:52:50;102162.00;;;10.30
65569;BMP180;52211;50.154;8.682;2023-02-10T12:58:29;102159.00;;;10.50
65569;BMP180;52211;50.154;8.682;2023-02-10T13:01:29;102152.00;;;10.60
65569;BMP180;52211;50.154;8.682;2023-02-10T13:04:24;102153.00;;;10.60
65569;BMP180;52211;50.154;8.682;2023-02-10T13:07:06;102145.00;;;10.70
65569;BMP180;52211;50.154;8.682;2023-02-10T13:09:54;102146.00;;;10.90
65569;BMP180;52211;50.154;8.682;2023-02-10T13:12:31;102139.00;;;11.20
65569;BMP180;52211;50.154;8.682;2023-02-10T13:15:06;102141.00;;;11.60
65569;BMP180;52211;50.154;8.682;2023-02-10T13:17:45;102154.00;;;12.10
65569;BMP180;52211;50.154;8.682;2023-02-10T13:32:42;102144.00;;;14.40
65569;BMP180;52211;50.154;8.682;2023-02-10T13:35:18;102142.00;;;14.70
65569;BMP180;52211;50.154;8.682;2023-02-10T13:37:52;102144.00;;;15.00
65569;BMP180;52211;50.154;8.682;2023-02-10T13:40:34;102146.00;;;15.30
65569;BMP180;52211;50.154;8.682;2023-02-10T13:43:33;102148.00;;;15.60
65569;BMP180;52211;50.154;8.682;2023-02-10T13:46:02;102157.00;;;15.90
65569;BMP180;52211;50.154;8.682;2023-02-10T13:48:35;102131.00;;;16.00
65569;BMP180;52211;50.154;8.682;2023-02-10T13:51:06;102142.00;;;16.10
65569;BMP180;52211;50.154;8.682;2023-02-10T13:58:59;102125.00;;;15.60
65569;BMP180;52211;50.154;8.682;2023-02-10T14:06:53;102127.00;;;15.00
65569;BMP180;52211;50.154;8.682;2023-02-10T14:09:34;102126.00;;;14.80
65569;BMP180;52211;50.154;8.682;2023-02-10T14:12:24;102122.00;;;14.60
65569;BMP180;52211;50.154;8.682;2023-02-10T14:14:56;102122.00;;;14.50
65569;BMP180;52211;50.154;8.682;2023-02-10T14:17:40;102116.00;;;14.20
65569;BMP180;52211;50.154;8.682;2023-02-10T14:20:20;102118.00;;;14.00
65569;BMP180;52211;50.154;8.682;2023-02-10T14:23:01;102115.00;;;13.80
65569;BMP180;52211;50.154;8.682;2023-02-10T14:25:40;102110.00;;;13.50
65569;BMP180;52211;50.154;8.682;2023-02-10T14:28:22;102108.00;;;13.20
65569;BMP180;52211;50.154;8.682;2023-02-10T14:30:56;102108.00;;;13.10
65569;BMP180;52211;50.154;8.682;2023-02-10T14:33:35;102108.00;;;12.90
65569;BMP180;52211;50.154;8.682;2023-02-10T14:36:19;102104.00;;;12.80
65569;BMP180;52211;50.154;8.682;2023-02-10T14:38:55;102106.00;;;12.60
65569;BMP180;52211;50.154;8.682;2023-02-10T14:41:26;102107.00;;;12.50
65569;BMP180;52211;50.154;8.682;2023-02-10T14:43:54;102110.00;;;12.40
65569;BMP180;52211;50.154;8.682;2023-02-10T14:46:31;102104.00;;;12.30
65569;BMP180;52211;50.154;8.682;2023-02-10T14:49:10;102105.00;;;12.20
65569;BMP180;52211;50.154;8.682;2023-02-10T14:51:47;102117.00;;;12.10
65569;BMP180;52211;50.154;8.682;2023-02-10T14:54:21;102108.00;;;12.00
65569;BMP180;52211;50.154;8.682;2023-02-10T14:56:59;102112.00;;;11.90
65569;BMP180;52211;50.154;8.682;2023-02-10T14:59:33;102108.00;;;11.90
65569;BMP180;52211;50.154;8.682;2023-02-10T15:02:20;102107.00;;;11.80
65569;BMP180;52211;50.154;8.682;2023-02-10T15:04:51;102102.00;;;11.80
65569;BMP180;52211;50.154;8.682;2023-02-10T15:07:30;102099.00;;;11.70
65569;BMP180;52211;50.154;8.682;2023-02-10T15:12:43;102102.00;;;11.60
65569;BMP180;52211;50.154;8.682;2023-02-10T15:15:33;102091.00;;;11.50
65569;BMP180;52211;50.154;8.682;2023-02-10T15:20:52;102086.00;;;11.50
65569;BMP180;52211;50.154;8.682;2023-02-10T15:23:26;102085.00;;;11.50
65569;BMP180;52211;50.154;8.682;2023-02-10T15:26:20;102090.00;;;11.50
65569;BMP180;52211;50.154;8.682;2023-02-10T15:29:13;102081.00;;;11.50
65569;BMP180;52211;50.154;8.682;2023-02-10T15:31:50;102089.00;;;11.50
65569;BMP180;52211;50.154;8.682;2023-02-10T15:34:29;102093.00;;;11.50
65569;BMP180;52211;50.154;8.682;2023-02-10T15:37:05;102086.00;;;11.50
65569;BMP180;52211;50.154;8.682;2023-02-10T15:39:56;102093.00;;;11.50
65569;BMP180;52211;50.154;8.682;2023-02-10T15:42:29;102089.00;;;11.50
65569;BMP180;52211;50.154;8.682;2023-02-10T15:45:18;102082.00;;;11.50
65569;BMP180;52211;50.154;8.682;2023-02-10T15:48:07;102082.00;;;11.50
65569;BMP180;52211;50.154;8.682;2023-02-10T15:50:38;102084.00;;;11.50
65569;BMP180;52211;50.154;8.682;2023-02-10T15:53:18;102091.00;;;11.50
65569;BMP180;52211;50.154;8.682;2023-02-10T15:55:51;102087.00;;;11.50
65569;BMP180;52211;50.154;8.682;2023-02-10T15:58:25;102084.00;;;11.50
65569;BMP180;52211;50.154;8.682;2023-02-10T16:00:54;102079.00;;;11.40
65569;BMP180;52211;50.154;8.682;2023-02-10T16:03:21;102081.00;;;11.40
65569;BMP180;52211;50.154;8.682;2023-02-10T16:05:52;102084.00;;;11.30
65569;BMP180;52211;50.154;8.682;2023-02-10T16:08:28;102073.00;;;11.30
65569;BMP180;52211;50.154;8.682;2023-02-10T16:10:57;102084.00;;;11.30
65569;BMP180;52211;50.154;8.682;2023-02-10T16:13:28;102083.00;;;11.20
65569;BMP180;52211;50.154;8.682;2023-02-10T16:15:55;102076.00;;;11.20
65569;BMP180;52211;50.154;8.682;2023-02-10T16:18:30;102085.00;;;11.20
65569;BMP180;52211;50.154;8.682;2023-02-10T16:20:59;102081.00;;;11.10
65569;BMP180;52211;50.154;8.682;2023-02-10T16:23:30;102076.00;;;11.10
65569;BMP180;52211;50.154;8.682;2023-02-10T16:25:57;102080.00;;;11.10
65569;BMP180;52211;50.154;8.682;2023-02-10T16:28:25;102078.00;;;11.00
65569;BMP180;52211;50.154;8.682;2023-02-10T16:30:52;102085.00;;;11.00
65569;BMP180;52211;50.154;8.682;2023-02-10T16:33:20;102077.00;;;11.00
65569;BMP180;52211;50.154;8.682;2023-02-10T16:35:47;102084.00;;;10.90
65569;BMP180;52211;50.154;8.682;2023-02-10T16:38:19;102084.00;;;10.90